sensor_id;sensor_type;location;lat;lon;timestamp;pressure;altitude;pressure_sealevel;temperature;humidity
21664;BME280;10993;52.510;13.456;2023-03-14T00:03:37;56763.28;;;-146.93;68.68
21664;BME280;10993;52.510;13.456;2023-03-14T00:08:37;56807.81;;;-146.93;68.75
21664;BME280;10993;52.510;13.456;2023-03-14T00:13:39;56791.63;;;-146.93;69.55
21664;BME280;10993;52.510;13.456;2023-03-14T00:18:40;56751.13;;;-146.93;69.85
21664;BME280;10993;52.510;13.456;2023-03-14T00:23:41;56777.44;;;-146.93;70.16
21664;BME280;10993;52.510;13.456;2023-03-14T00:28:43;56844.25;;;-146.93;70.01
21664;BME280;10993;52.510;13.456;2023-03-14T00:33:44;56767.31;;;-146.93;70.77
21664;BME280;10993;52.510;13.456;2023-03-14T00:38:47;56757.19;;;-146.93;71.41
21664;BME280;10993;52.510;13.456;2023-03-14T00:43:49;56783.50;;;-146.93;72.41
21664;BME280;10993;52.510;13.456;2023-03-14T00:48:49;56815.91;;;-146.93;72.59
21664;BME280;10993;52.510;13.456;2023-03-14T00:53:49;56759.22;;;-146.93;73.19
21664;BME280;10993;52.510;13.456;2023-03-14T00:58:54;56761.25;;;-146.93;74.47
21664;BME280;10993;52.510;13.456;2023-03-14T01:03:55;56779.47;;;-146.93;74.65
21664;BME280;10993;52.510;13.456;2023-03-14T01:08:57;56745.03;;;-146.93;74.78
21664;BME280;10993;52.510;13.456;2023-03-14T01:13:59;56743.03;;;-146.93;75.75
21664;BME280;10993;52.510;13.456;2023-03-14T01:19:00;56617.47;;;-146.93;76.18
21664;BME280;10993;52.510;13.456;2023-03-14T01:24:03;56738.97;;;-146.93;76.10
21664;BME280;10993;52.510;13.456;2023-03-14T01:29:05;56759.22;;;-146.93;75.68
21664;BME280;10993;52.510;13.456;2023-03-14T01:34:05;56755.16;;;-146.93;75.51
21664;BME280;10993;52.510;13.456;2023-03-14T01:39:06;56763.28;;;-146.93;74.84
21664;BME280;10993;52.510;13.456;2023-03-14T01:44:10;56706.56;;;-146.93;74.06
21664;BME280;10993;52.510;13.456;2023-03-14T01:49:15;56797.69;;;-146.93;73.49
21664;BME280;10993;52.510;13.456;2023-03-14T01:54:19;56805.78;;;-146.93;72.94
21664;BME280;10993;52.510;13.456;2023-03-14T01:59:23;56801.75;;;-146.93;73.05
21664;BME280;10993;52.510;13.456;2023-03-14T02:04:28;56805.78;;;-146.93;72.67
21664;BME280;10993;52.510;13.456;2023-03-14T02:09:29;56755.16;;;-146.93;73.60
21664;BME280;10993;52.510;13.456;2023-03-14T02:14:33;56747.06;;;-146.93;74.53
21664;BME280;10993;52.510;13.456;2023-03-14T02:19:44;56629.63;;;-146.93;74.09
21664;BME280;10993;52.510;13.456;2023-03-14T02:24:56;56722.78;;;-146.93;75.53
21664;BME280;10993;52.510;13.456;2023-03-14T02:30:03;56714.66;;;-146.93;75.05
21664;BME280;10993;52.510;13.456;2023-03-14T02:35:08;56781.50;;;-146.93;75.02
21664;BME280;10993;52.510;13.456;2023-03-14T02:40:10;56702.53;;;-146.93;74.29
21664;BME280;10993;52.510;13.456;2023-03-14T02:45:36;56749.09;;;-146.93;74.32
21664;BME280;10993;52.510;13.456;2023-03-14T02:50:37;56771.38;;;-146.93;73.79
21664;BME280;10993;52.510;13.456;2023-03-14T02:55:38;56751.13;;;-146.93;73.60
21664;BME280;10993;52.510;13.456;2023-03-14T03:00:40;56747.06;;;-146.93;73.85
21664;BME280;10993;52.510;13.456;2023-03-14T03:05:40;56757.19;;;-146.93;73.79
21664;BME280;10993;52.510;13.456;2023-03-14T03:10:40;56732.91;;;-146.93;74.19
21664;BME280;10993;52.510;13.456;2023-03-14T03:15:42;56745.03;;;-146.93;74.52
21664;BME280;10993;52.510;13.456;2023-03-14T03:20:43;56747.06;;;-146.93;74.68
21664;BME280;10993;52.510;13.456;2023-03-14T03:25:48;56662.03;;;-146.93;74.48
21664;BME280;10993;52.510;13.456;2023-03-14T03:30:49;56738.97;;;-146.93;74.42
21664;BME280;10993;52.510;13.456;2023-03-14T03:35:50;56799.72;;;-146.93;73.49
21664;BME280;10993;52.510;13.456;2023-03-14T03:40:52;56757.19;;;-146.93;74.39
21664;BME280;10993;52.510;13.456;2023-03-14T03:45:53;56769.34;;;-146.93;73.74
21664;BME280;10993;52.510;13.456;2023-03-14T03:50:54;56724.78;;;-146.93;74.32
21664;BME280;10993;52.510;13.456;2023-03-14T03:55:55;56738.97;;;-146.93;74.50
21664;BME280;10993;52.510;13.456;2023-03-14T04:00:56;56726.81;;;-146.93;74.73
21664;BME280;10993;52.510;13.456;2023-03-14T04:06:01;56581.03;;;-146.93;74.74
21664;BME280;10993;52.510;13.456;2023-03-14T04:11:02;56670.13;;;-146.93;75.05
21664;BME280;10993;52.510;13.456;2023-03-14T04:16:11;56682.28;;;-146.93;74.37
21664;BME280;10993;52.510;13.456;2023-03-14T04:21:15;56728.84;;;-146.93;74.13
21664;BME280;10993;52.510;13.456;2023-03-14T04:26:16;56736.94;;;-146.93;74.23
21664;BME280;10993;52.510;13.456;2023-03-14T04:31:19;56763.28;;;-146.93;73.71
21664;BME280;10993;52.510;13.456;2023-03-14T04:36:20;56728.84;;;-146.93;73.14
21664;BME280;10993;52.510;13.456;2023-03-14T04:41:20;56714.66;;;-146.93;73.29
21664;BME280;10993;52.510;13.456;2023-03-14T04:46:22;57273.56;;;-146.93;73.00
21664;BME280;10993;52.510;13.456;2023-03-14T04:51:23;56736.94;;;-146.93;73.01
21664;BME280;10993;52.510;13.456;2023-03-14T04:56:27;56747.06;;;-146.93;72.20
21664;BME280;10993;52.510;13.456;2023-03-14T05:01:29;56759.22;;;-146.93;72.51
21664;BME280;10993;52.510;13.456;2023-03-14T05:06:29;56757.19;;;-146.93;71.94
21664;BME280;10993;52.510;13.456;2023-03-14T05:11:29;56755.16;;;-146.93;71.83
21664;BME280;10993;52.510;13.456;2023-03-14T05:16:31;56708.59;;;-146.93;71.81
21664;BME280;10993;52.510;13.456;2023-03-14T05:21:32;56738.97;;;-146.93;70.41
21664;BME280;10993;52.510;13.456;2023-03-14T05:26:32;56747.06;;;-146.93;70.46
21664;BME280;10993;52.510;13.456;2023-03-14T05:31:34;56738.97;;;-146.93;70.18
21664;BME280;10993;52.510;13.456;2023-03-14T05:36:34;56726.81;;;-146.93;70.21
21664;BME280;10993;52.510;13.456;2023-03-14T05:41:35;56734.91;;;-146.93;69.15
21664;BME280;10993;52.510;13.456;2023-03-14T05:46:37;56734.91;;;-146.93;67.92
21664;BME280;10993;52.510;13.456;2023-03-14T05:51:37;56736.94;;;-146.93;67.56
21664;BME280;10993;52.510;13.456;2023-03-14T05:56:37;56708.59;;;-146.93;66.45
21664;BME280;10993;52.510;13.456;2023-03-14T06:01:39;56785.53;;;-146.93;66.37
21664;BME280;10993;52.510;13.456;2023-03-14T06:06:39;56747.06;;;-146.93;65.69
21664;BME280;10993;52.510;13.456;2023-03-14T06:11:40;56749.09;;;-146.93;64.87
21664;BME280;10993;52.510;13.456;2023-03-14T06:16:42;56747.06;;;-146.93;64.53
21664;BME280;10993;52.510;13.456;2023-03-14T06:21:42;56736.94;;;-146.93;63.89
21664;BME280;10993;52.510;13.456;2023-03-14T06:26:42;56765.28;;;-146.93;63.61
21664;BME280;10993;52.510;13.456;2023-03-14T06:31:44;56777.44;;;-146.93;63.18
21664;BME280;10993;52.510;13.456;2023-03-14T06:36:44;56674.19;;;-146.93;62.43
21664;BME280;10993;52.510;13.456;2023-03-14T06:41:45;56781.50;;;-146.93;61.58
21664;BME280;10993;52.510;13.456;2023-03-14T06:46:46;56763.28;;;-146.93;60.49
21664;BME280;10993;52.510;13.456;2023-03-14T06:51:47;56822.00;;;-146.93;59.24
21664;BME280;10993;52.510;13.456;2023-03-14T06:56:47;56828.06;;;-146.93;57.69
21664;BME280;10993;52.510;13.456;2023-03-14T07:01:49;56870.59;;;-146.93;57.26
21664;BME280;10993;52.510;13.456;2023-03-14T07:06:50;56876.66;;;-146.93;55.06
21664;BME280;10993;52.510;13.456;2023-03-14T07:11:51;56902.97;;;-146.93;53.97
21664;BME280;10993;52.510;13.456;2023-03-14T07:16:52;56917.16;;;-146.93;53.56
21664;BME280;10993;52.510;13.456;2023-03-14T07:21:53;56876.66;;;-146.93;54.32
21664;BME280;10993;52.510;13.456;2023-03-14T07:26:53;56909.06;;;-146.93;53.62
21664;BME280;10993;52.510;13.456;2023-03-14T07:31:55;57067.00;;;-146.93;52.03
21664;BME280;10993;52.510;13.456;2023-03-14T07:36:55;57010.31;;;-146.93;49.83
21664;BME280;10993;52.510;13.456;2023-03-14T07:41:56;57026.50;;;-146.93;49.05
21664;BME280;10993;52.510;13.456;2023-03-14T07:46:57;56941.44;;;-146.93;50.19
21664;BME280;10993;52.510;13.456;2023-03-14T07:51:58;57010.31;;;-146.93;50.63
21664;BME280;10993;52.510;13.456;2023-03-14T07:57:01;56949.56;;;-146.93;49.94
21664;BME280;10993;52.510;13.456;2023-03-14T08:02:03;57058.91;;;-146.93;47.26
21664;BME280;10993;52.510;13.456;2023-03-14T08:07:05;57073.06;;;-146.93;47.27
21664;BME280;10993;52.510;13.456;2023-03-14T08:12:06;56913.09;;;-146.93;49.25
21664;BME280;10993;52.510;13.456;2023-03-14T08:17:08;57030.56;;;-146.93;48.40
21664;BME280;10993;52.510;13.456;2023-03-14T08:22:09;56979.94;;;-146.93;49.35
21664;BME280;10993;52.510;13.456;2023-03-14T08:27:09;56986.00;;;-146.93;49.58
21664;BME280;10993;52.510;13.456;2023-03-14T08:32:11;56941.44;;;-146.93;50.22
21664;BME280;10993;52.510;13.456;2023-03-14T08:37:11;56998.16;;;-146.93;50.17
21664;BME280;10993;52.510;13.456;2023-03-14T08:42:12;57018.41;;;-146.93;48.57
21664;BME280;10993;52.510;13.456;2023-03-14T08:47:13;57018.41;;;-146.93;48.65
21664;BME280;10993;52.510;13.456;2023-03-14T08:52:14;56955.63;;;-146.93;50.06
21664;BME280;10993;52.510;13.456;2023-03-14T08:57:16;56935.38;;;-146.93;50.68
21664;BME280;10993;52.510;13.456;2023-03-14T09:02:18;56909.06;;;-146.93;50.61
21664;BME280;10993;52.510;13.456;2023-03-14T09:07:18;56983.97;;;-146.93;49.92
21664;BME280;10993;52.510;13.456;2023-03-14T09:12:18;56913.09;;;-146.93;50.48
21664;BME280;10993;52.510;13.456;2023-03-14T09:17:20;57050.81;;;-146.93;48.08
21664;BME280;10993;52.510;13.456;2023-03-14T09:22:20;57362.66;;;-146.93;40.97
21664;BME280;10993;52.510;13.456;2023-03-14T09:27:21;57654.31;;;-146.93;38.11
21664;BME280;10993;52.510;13.456;2023-03-14T09:32:23;58318.69;;;-146.93;33.45
21664;BME280;10993;52.510;13.456;2023-03-14T09:37:23;58879.84;;;-146.93;30.56
21664;BME280;10993;52.510;13.456;2023-03-14T09:42:26;58786.66;;;-146.93;29.59
21664;BME280;10993;52.510;13.456;2023-03-14T09:47:29;58843.38;;;-146.93;30.28
21664;BME280;10993;52.510;13.456;2023-03-14T09:52:32;57761.66;;;-146.93;33.46
21664;BME280;10993;52.510;13.456;2023-03-14T09:57:34;57439.63;;;-146.93;35.29
21664;BME280;10993;52.510;13.456;2023-03-14T10:02:37;57334.31;;;-146.93;37.90
21664;BME280;10993;52.510;13.456;2023-03-14T10:07:38;57196.59;;;-146.93;40.38
21664;BME280;10993;52.510;13.456;2023-03-14T10:12:38;57099.41;;;-146.93;41.58
21664;BME280;10993;52.510;13.456;2023-03-14T10:17:43;57099.41;;;-146.93;41.79
21664;BME280;10993;52.510;13.456;2023-03-14T10:22:43;57119.66;;;-146.93;42.27
21664;BME280;10993;52.510;13.456;2023-03-14T10:27:44;57034.59;;;-146.93;42.31
21664;BME280;10993;52.510;13.456;2023-03-14T10:32:48;57310.00;;;-146.93;41.69
21664;BME280;10993;52.510;13.456;2023-03-14T10:37:53;57062.94;;;-146.93;42.55
21664;BME280;10993;52.510;13.456;2023-03-14T10:42:57;57075.09;;;-146.93;42.39
21664;BME280;10993;52.510;13.456;2023-03-14T10:48:06;56925.25;;;-146.93;42.43
21664;BME280;10993;52.510;13.456;2023-03-14T10:53:17;57026.50;;;-146.93;42.33
21664;BME280;10993;52.510;13.456;2023-03-14T10:58:20;57022.44;;;-146.93;42.44
21664;BME280;10993;52.510;13.456;2023-03-14T11:03:27;56986.00;;;-146.93;43.10
21664;BME280;10993;52.510;13.456;2023-03-14T11:08:32;57018.41;;;-146.93;42.98
21664;BME280;10993;52.510;13.456;2023-03-14T11:13:39;56994.09;;;-146.93;42.96
21664;BME280;10993;52.510;13.456;2023-03-14T11:18:51;57026.50;;;-146.93;42.55
21664;BME280;10993;52.510;13.456;2023-03-14T11:24:12;57071.06;;;-146.93;42.76
21664;BME280;10993;52.510;13.456;2023-03-14T11:29:20;57020.44;;;-146.93;42.67
21664;BME280;10993;52.510;13.456;2023-03-14T11:34:27;57075.09;;;-146.93;43.13
21664;BME280;10993;52.510;13.456;2023-03-14T11:39:35;56959.69;;;-146.93;44.61
21664;BME280;10993;52.510;13.456;2023-03-14T11:44:38;56959.69;;;-146.93;45.68
21664;BME280;10993;52.510;13.456;2023-03-14T11:49:43;56986.00;;;-146.93;46.21
21664;BME280;10993;52.510;13.456;2023-03-14T11:54:49;56927.28;;;-146.93;47.80
21664;BME280;10993;52.510;13.456;2023-03-14T11:59:55;57038.66;;;-146.93;46.82
21664;BME280;10993;52.510;13.456;2023-03-14T12:05:19;57062.94;;;-146.93;45.87
21664;BME280;10993;52.510;13.456;2023-03-14T12:10:26;56990.06;;;-146.93;46.41
21664;BME280;10993;52.510;13.456;2023-03-14T12:15:27;57688.72;;;-146.93;46.48
21664;BME280;10993;52.510;13.456;2023-03-14T12:20:29;57012.31;;;-146.93;46.22
21664;BME280;10993;52.510;13.456;2023-03-14T12:25:30;57081.19;;;-146.93;45.73
21664;BME280;10993;52.510;13.456;2023-03-14T12:30:34;57050.81;;;-146.93;46.25
21664;BME280;10993;52.510;13.456;2023-03-14T12:35:38;57044.72;;;-146.93;46.91
21664;BME280;10993;52.510;13.456;2023-03-14T12:40:41;56994.09;;;-146.93;48.96
21664;BME280;10993;52.510;13.456;2023-03-14T12:46:07;57038.66;;;-146.93;50.94
21664;BME280;10993;52.510;13.456;2023-03-14T12:51:14;56986.00;;;-146.93;51.39
21664;BME280;10993;52.510;13.456;2023-03-14T12:56:21;57044.72;;;-146.93;50.61
21664;BME280;10993;52.510;13.456;2023-03-14T13:01:23;57101.44;;;-146.93;48.51
21664;BME280;10993;52.510;13.456;2023-03-14T13:06:49;57038.66;;;-146.93;49.27
21664;BME280;10993;52.510;13.456;2023-03-14T13:11:54;56759.22;;;-146.93;57.79
21664;BME280;10993;52.510;13.456;2023-03-14T13:16:55;56915.13;;;-146.93;63.64
21664;BME280;10993;52.510;13.456;2023-03-14T13:22:03;56898.94;;;-146.93;69.31
21664;BME280;10993;52.510;13.456;2023-03-14T13:27:04;57330.25;;;-146.93;72.70
21664;BME280;10993;52.510;13.456;2023-03-14T13:32:16;56828.06;;;-146.93;74.82
21664;BME280;10993;52.510;13.456;2023-03-14T13:37:20;56834.13;;;-146.93;73.02
21664;BME280;10993;52.510;13.456;2023-03-14T13:42:24;56913.09;;;-146.93;72.51
21664;BME280;10993;52.510;13.456;2023-03-14T13:47:26;56836.16;;;-146.93;72.50
21664;BME280;10993;52.510;13.456;2023-03-14T13:52:35;56836.16;;;-146.93;74.05
21664;BME280;10993;52.510;13.456;2023-03-14T13:57:46;56819.97;;;-146.93;68.58
21664;BME280;10993;52.510;13.456;2023-03-14T14:02:48;56822.00;;;-146.93;68.10
21664;BME280;10993;52.510;13.456;2023-03-14T14:07:50;56822.00;;;-146.93;65.00
21664;BME280;10993;52.510;13.456;2023-03-14T14:12:55;56842.22;;;-146.93;64.73
21664;BME280;10993;52.510;13.456;2023-03-14T14:18:01;56771.38;;;-146.93;63.96
21664;BME280;10993;52.510;13.456;2023-03-14T14:23:04;56870.59;;;-146.93;63.44
21664;BME280;10993;52.510;13.456;2023-03-14T14:28:17;56842.22;;;-146.93;61.81
21664;BME280;10993;52.510;13.456;2023-03-14T14:33:19;56864.50;;;-146.93;61.68
21664;BME280;10993;52.510;13.456;2023-03-14T14:38:21;56817.94;;;-146.93;60.33
21664;BME280;10993;52.510;13.456;2023-03-14T14:43:24;56919.19;;;-146.93;60.55
21664;BME280;10993;52.510;13.456;2023-03-14T14:48:27;56977.91;;;-146.93;56.71
21664;BME280;10993;52.510;13.456;2023-03-14T14:53:34;56955.63;;;-146.93;55.95
21664;BME280;10993;52.510;13.456;2023-03-14T14:58:40;56949.56;;;-146.93;53.93
21664;BME280;10993;52.510;13.456;2023-03-14T15:03:42;56961.69;;;-146.93;52.34
21664;BME280;10993;52.510;13.456;2023-03-14T15:08:46;56949.56;;;-146.93;54.58
21664;BME280;10993;52.510;13.456;2023-03-14T15:13:47;56965.75;;;-146.93;55.06
21664;BME280;10993;52.510;13.456;2023-03-14T15:18:52;56933.34;;;-146.93;54.13
21664;BME280;10993;52.510;13.456;2023-03-14T15:23:54;56803.75;;;-146.93;57.73
21664;BME280;10993;52.510;13.456;2023-03-14T15:28:55;56611.41;;;-146.93;71.87
21664;BME280;10993;52.510;13.456;2023-03-14T15:33:55;56581.03;;;-146.93;78.87
21664;BME280;10993;52.510;13.456;2023-03-14T15:38:58;56564.84;;;-146.93;81.44
21664;BME280;10993;52.510;13.456;2023-03-14T15:44:01;56552.69;;;-146.93;81.80
21664;BME280;10993;52.510;13.456;2023-03-14T15:49:01;56572.94;;;-146.93;82.88
21664;BME280;10993;52.510;13.456;2023-03-14T15:54:03;56483.84;;;-146.93;82.64
21664;BME280;10993;52.510;13.456;2023-03-14T15:59:04;56548.66;;;-146.93;79.77
21664;BME280;10993;52.510;13.456;2023-03-14T16:04:04;56556.75;;;-146.93;80.40
21664;BME280;10993;52.510;13.456;2023-03-14T16:09:06;56568.88;;;-146.93;81.40
21664;BME280;10993;52.510;13.456;2023-03-14T16:14:07;56564.84;;;-146.93;83.14
21664;BME280;10993;52.510;13.456;2023-03-14T16:19:07;57103.44;;;-146.93;83.23
21664;BME280;10993;52.510;13.456;2023-03-14T16:24:09;56532.44;;;-146.93;85.03
21664;BME280;10993;52.510;13.456;2023-03-14T16:29:09;56548.66;;;-146.93;85.50
21664;BME280;10993;52.510;13.456;2023-03-14T16:34:09;56560.78;;;-146.93;85.62
21664;BME280;10993;52.510;13.456;2023-03-14T16:39:11;56530.41;;;-146.93;85.01
21664;BME280;10993;52.510;13.456;2023-03-14T16:44:11;56585.09;;;-146.93;85.24
21664;BME280;10993;52.510;13.456;2023-03-14T16:49:12;56595.22;;;-146.93;86.05
21664;BME280;10993;52.510;13.456;2023-03-14T16:54:14;56546.63;;;-146.93;86.58
21664;BME280;10993;52.510;13.456;2023-03-14T16:59:14;56581.03;;;-146.93;86.14
21664;BME280;10993;52.510;13.456;2023-03-14T17:04:15;56560.78;;;-146.93;86.02
21664;BME280;10993;52.510;13.456;2023-03-14T17:09:16;56560.78;;;-146.93;85.80
21664;BME280;10993;52.510;13.456;2023-03-14T17:14:17;56568.88;;;-146.93;85.67
21664;BME280;10993;52.510;13.456;2023-03-14T17:19:17;56587.13;;;-146.93;85.48
21664;BME280;10993;52.510;13.456;2023-03-14T17:24:19;56603.31;;;-146.93;85.99
21664;BME280;10993;52.510;13.456;2023-03-14T17:29:19;56556.75;;;-146.93;86.19
21664;BME280;10993;52.510;13.456;2023-03-14T17:34:19;56554.72;;;-146.93;86.09
21664;BME280;10993;52.510;13.456;2023-03-14T17:39:21;56532.44;;;-146.93;85.81
21664;BME280;10993;52.510;13.456;2023-03-14T17:44:22;56564.84;;;-146.93;85.10
21664;BME280;10993;52.510;13.456;2023-03-14T17:49:22;56544.59;;;-146.93;85.44
21664;BME280;10993;52.510;13.456;2023-03-14T17:54:24;56502.06;;;-146.93;85.36
21664;BME280;10993;52.510;13.456;2023-03-14T17:59:24;56775.41;;;-146.93;84.88
21664;BME280;10993;52.510;13.456;2023-03-14T18:04:24;56568.88;;;-146.93;84.81
21664;BME280;10993;52.510;13.456;2023-03-14T18:09:26;56577.00;;;-146.93;84.89
21664;BME280;10993;52.510;13.456;2023-03-14T18:14:26;56556.75;;;-146.93;84.98
21664;BME280;10993;52.510;13.456;2023-03-14T18:19:27;56552.69;;;-146.93;84.87
21664;BME280;10993;52.510;13.456;2023-03-14T18:24:29;56342.13;;;-146.93;84.10
21664;BME280;10993;52.510;13.456;2023-03-14T18:29:29;56560.78;;;-146.93;83.40
21664;BME280;10993;52.510;13.456;2023-03-14T18:34:30;56583.06;;;-146.93;83.48
21664;BME280;10993;52.510;13.456;2023-03-14T18:39:33;56577.00;;;-146.93;83.53
21664;BME280;10993;52.510;13.456;2023-03-14T18:44:34;56572.94;;;-146.93;83.61
21664;BME280;10993;52.510;13.456;2023-03-14T18:49:34;56605.34;;;-146.93;82.92
21664;BME280;10993;52.510;13.456;2023-03-14T18:54:36;56568.88;;;-146.93;82.99
21664;BME280;10993;52.510;13.456;2023-03-14T18:59:36;56544.59;;;-146.93;83.08
21664;BME280;10993;52.510;13.456;2023-03-14T19:04:37;56564.84;;;-146.93;83.08
21664;BME280;10993;52.510;13.456;2023-03-14T19:09:39;56540.53;;;-146.93;82.80
21664;BME280;10993;52.510;13.456;2023-03-14T19:14:39;56601.28;;;-146.93;82.13
21664;BME280;10993;52.510;13.456;2023-03-14T19:19:39;56591.16;;;-146.93;82.41
21664;BME280;10993;52.510;13.456;2023-03-14T19:24:41;56583.06;;;-146.93;82.45
21664;BME280;10993;52.510;13.456;2023-03-14T19:29:41;56540.53;;;-146.93;81.88
21664;BME280;10993;52.510;13.456;2023-03-14T19:34:42;56579.00;;;-146.93;81.77
21664;BME280;10993;52.510;13.456;2023-03-14T19:39:44;56496.00;;;-146.93;81.38
21664;BME280;10993;52.510;13.456;2023-03-14T19:44:46;56556.75;;;-146.93;80.93
21664;BME280;10993;52.510;13.456;2023-03-14T19:49:46;56585.09;;;-146.93;80.44
21664;BME280;10993;52.510;13.456;2023-03-14T19:54:48;56508.16;;;-146.93;79.60
21664;BME280;10993;52.510;13.456;2023-03-14T19:59:48;56548.66;;;-146.93;78.54
21664;BME280;10993;52.510;13.456;2023-03-14T20:04:49;56587.13;;;-146.93;78.24
21664;BME280;10993;52.510;13.456;2023-03-14T20:09:54;56562.81;;;-146.93;77.03
21664;BME280;10993;52.510;13.456;2023-03-14T20:14:55;56591.16;;;-146.93;76.25
21664;BME280;10993;52.510;13.456;2023-03-14T20:19:55;56587.13;;;-146.93;73.62
21664;BME280;10993;52.510;13.456;2023-03-14T20:24:58;56629.63;;;-146.93;72.22
21664;BME280;10993;52.510;13.456;2023-03-14T20:29:59;56566.88;;;-146.93;72.32
21664;BME280;10993;52.510;13.456;2023-03-14T20:35:07;56595.22;;;-146.93;71.63
21664;BME280;10993;52.510;13.456;2023-03-14T20:40:10;56607.34;;;-146.93;73.05
21664;BME280;10993;52.510;13.456;2023-03-14T20:45:13;56544.59;;;-146.93;72.38
21664;BME280;10993;52.510;13.456;2023-03-14T20:50:14;56481.84;;;-146.93;72.37
21664;BME280;10993;52.510;13.456;2023-03-14T20:55:15;56605.34;;;-146.93;70.94
21664;BME280;10993;52.510;13.456;2023-03-14T21:00:16;56601.28;;;-146.93;69.68
21664;BME280;10993;52.510;13.456;2023-03-14T21:05:17;56589.13;;;-146.93;69.54
21664;BME280;10993;52.510;13.456;2023-03-14T21:10:19;56593.19;;;-146.93;67.59
21664;BME280;10993;52.510;13.456;2023-03-14T21:15:20;56591.16;;;-146.93;67.88
21664;BME280;10993;52.510;13.456;2023-03-14T21:20:21;56609.38;;;-146.93;65.54
21664;BME280;10993;52.510;13.456;2023-03-14T21:25:26;56969.81;;;-146.93;64.86
21664;BME280;10993;52.510;13.456;2023-03-14T21:30:28;56358.31;;;-146.93;63.68
21664;BME280;10993;52.510;13.456;2023-03-14T21:35:28;56605.34;;;-146.93;63.65
21664;BME280;10993;52.510;13.456;2023-03-14T21:40:30;56577.00;;;-146.93;63.19
21664;BME280;10993;52.510;13.456;2023-03-14T21:45:31;56560.78;;;-146.93;63.22
21664;BME280;10993;52.510;13.456;2023-03-14T21:50:31;56579.00;;;-146.93;63.25
21664;BME280;10993;52.510;13.456;2023-03-14T21:55:39;56528.41;;;-146.93;62.78
21664;BME280;10993;52.510;13.456;2023-03-14T22:00:41;56599.25;;;-146.93;63.69
21664;BME280;10993;52.510;13.456;2023-03-14T22:05:41;56593.19;;;-146.93;63.10
21664;BME280;10993;52.510;13.456;2023-03-14T22:10:44;56556.75;;;-146.93;63.87
21664;BME280;10993;52.510;13.456;2023-03-14T22:15:46;56550.66;;;-146.93;63.89
21664;BME280;10993;52.510;13.456;2023-03-14T22:20:47;56560.78;;;-146.93;65.24
21664;BME280;10993;52.510;13.456;2023-03-14T22:25:49;56605.34;;;-146.93;66.14
21664;BME280;10993;52.510;13.456;2023-03-14T22:30:50;56398.81;;;-146.93;64.52
21664;BME280;10993;52.510;13.456;2023-03-14T22:35:51;56965.75;;;-146.93;65.19
21664;BME280;10993;52.510;13.456;2023-03-14T22:40:58;56552.69;;;-146.93;65.21
21664;BME280;10993;52.510;13.456;2023-03-14T22:46:01;56491.94;;;-146.93;65.53
21664;BME280;10993;52.510;13.456;2023-03-14T22:51:05;56577.00;;;-146.93;65.26
21664;BME280;10993;52.510;13.456;2023-03-14T22:56:07;56603.31;;;-146.93;65.64
21664;BME280;10993;52.510;13.456;2023-03-14T23:01:08;56599.25;;;-146.93;65.44
21664;BME280;10993;52.510;13.456;2023-03-14T23:06:08;56589.13;;;-146.93;64.63
21664;BME280;10993;52.510;13.456;2023-03-14T23:11:11;56609.38;;;-146.93;64.88
21664;BME280;10993;52.510;13.456;2023-03-14T23:16:12;56609.38;;;-146.93;64.25
21664;BME280;10993;52.510;13.456;2023-03-14T23:21:15;56487.91;;;-146.93;65.39
21664;BME280;10993;52.510;13.456;2023-03-14T23:26:20;56589.13;;;-146.93;65.49
21664;BME280;10993;52.510;13.456;2023-03-14T23:31:27;56570.91;;;-146.93;65.48
21664;BME280;10993;52.510;13.456;2023-03-14T23:36:27;56615.47;;;-146.93;65.52
21664;BME280;10993;52.510;13.456;2023-03-14T23:41:30;56605.34;;;-146.93;66.53
21664;BME280;10993;52.510;13.456;2023-03-14T23:46:30;56572.94;;;-146.93;65.67
21664;BME280;10993;52.510;13.456;2023-03-14T23:51:31;56591.16;;;-146.93;66.68
21664;BME280;10993;52.510;13.456;2023-03-14T23:56:32;56597.25;;;-146.93;66.12
